x

Cape Elizabeth- 45nm Nw Of Aberdeen, Wa (46041) Wave Buoy

8:50am - Tue 21st Nov 2017 All times are PST. -8 hours from GMT.

  • Sig Wave height 7.2ft
  • Swell Direction
  • Peak Period 6s
  • Average Period 5s
  • Wind
    27mph, 34mph gusts
  • Sea Temp 53°f
  • Air Temp 52°f
  • Sea Pressure 1008.1mb
  • Cape Elizabeth- 45nm Nw Of Aberdeen, Wa
  • Cape Elizabeth- 45nm Nw Of Aberdeen, Wa

More Historic Weather Station data

Upgrade to MSW Pro to gain access to the past 30 days of data for over 8000 Wavebouys and Weather Stations around the globe.

Join

Comparision Forecast

View Surf forecast
   
Tue 11/21 8:50am 7ft 6s 5s 27 34 mph 1008.1mb 53f 52f
7:50am 7.5ft 5s 5s 29 36 mph 1007.5mb 53f 51f
6:50am 8ft 6s 5s 29 36 mph 1008.1mb 53f 49f
5:50am 7.5ft 5s 5s 31 40 mph 1008.7mb 53f 49f
3:50am 7ft 8s 5s 29 36 mph 1010mb 53f 50f
2:50am 7ft 9s 6s 25 31 mph 1011.6mb 53f 49f
1:50am 7ft 9s 6s 29 36 mph 1011.9mb 53f 49f
12:50am 7ft 9s 6s 27 34 mph 1012.7mb 53f 48f
Mon 11/20 11:50pm 7.5ft 9s 7s 22 27 mph 1014mb 53f 47f
10:50pm 7ft 10s 7s 20 22 mph 1014.4mb 53f 47f
9:50pm 6.5ft 9s 7s 16 18 mph 1015.4mb 53f 48f
8:50pm 7ft 10s 8s 11 16 mph 1015.3mb 53f 50f
7:50pm 7ft 9s 8s 9 11 mph 1015.1mb 53f 50f
6:50pm 7.5ft 10s 8s 7 9 mph 1014.5mb 53f 50f
5:50pm 8ft 9s 8s 4 9 mph 1013.4mb 53f 50f
4:50pm 8ft 10s 8s 2 4 mph 1012.6mb 53f 50f
3:50pm 9ft 11s 8s 2 4 mph 1012mb 53f 50f
2:50pm 11.5ft 11s 9s 4 7 mph 1011.7mb 53f 51f
1:50pm 10.5ft 10s 8s 9 13 mph 1010.6mb 53f 50f
12:50pm 11ft 10s 8s 11 16 mph 1009.5mb 53f 50f
11:50am 12.5ft 11s 8s 11 16 mph 1008.8mb 53f 50f
10:50am 12.5ft 11s 8s 16 20 mph 1006.9mb 53f 49f
9:50am 11.5ft 11s 8s 16 20 mph 1005.2mb 53f 49f
8:50am 13ft 11s 8s 20 25 mph 1003.6mb 53f 49f
7:50am 14ft 11s 8s 18 27 mph 1001.9mb 53f 49f
6:50am 15ft 11s 9s 20 25 mph 1000.9mb 53f 49f
5:50am 15.5ft 11s 9s 18 25 mph 999.8mb 53f 50f
4:50am 13.5ft 11s 9s 18 22 mph 999.4mb 53f 49f
3:50am 15ft 11s 9s 16 20 mph 999mb 53f 50f
2:50am 14.5ft 11s 9s 13 18 mph 999.3mb 53f 50f
1:50am 15ft 11s 9s 11 16 mph 999.3mb 53f 50f
12:50am 17.5ft 11s 9s 13 16 mph 999.4mb 53f 51f
Sun 11/19 11:50pm 15.5ft 11s 9s 11 13 mph 999.4mb 53f 52f
10:50pm 17ft 11s 9s 7 9 mph 998.9mb 53f 52f
9:50pm 17.5ft 11s 8s 13 20 mph 998.5mb 53f 52f
8:50pm 19.5ft 11s 8s 29 34 mph 997.3mb 53f 54f
7:50pm 16.5ft 11s 8s 34 40 mph 997.1mb 53f 53f
6:50pm 17ft 10s 8s 29 36 mph 998.4mb 53f 52f
5:50pm 16.5ft 10s 8s 36 43 mph 998.3mb 53f 52f
4:50pm 15.5ft 10s 7s 34 45 mph 999.6mb 53f 52f
3:50pm 17.5ft 9s 8s 34 40 mph 1000.9mb 53f 52f
2:50pm 16.5ft 10s 7s 34 43 mph 1001.7mb 53f 52f
1:50pm 17.5ft 10s 8s 34 40 mph 1002.6mb 53f 52f
12:50pm 17.5ft 10s 8s 36 45 mph 1004.2mb 53f 52f
11:50am 16.5ft 8s 7s 36 45 mph 1005.2mb 53f 51f
10:50am 15ft 8s 7s 36 45 mph 1006.2mb 53f 52f
9:50am 14.5ft 8s 7s 36 47 mph 1007.4mb 53f 52f
8:50am 13ft 9s 7s 36 45 mph 1008.3mb 53f 51f
7:50am 12.5ft 7s 7s 31 38 mph 1009.6mb 53f 51f
6:50am 11ft 7s 6s 31 36 mph 1010.5mb 53f 52f
5:50am 11ft 7s 6s 29 36 mph 1011.5mb 53f 52f
4:50am 10ft 7s 6s 29 34 mph 1012.2mb 53f 52f
3:50am 9ft 8s 6s 29 36 mph 1012.7mb 53f 52f
2:50am 9ft 7s 6s 29 34 mph 1013.8mb 53f 51f
1:50am 10ft 7s 6s 29 34 mph 1014.3mb 54f 52f
12:50am 9ft 8s 6s 27 34 mph 1014.9mb 54f 52f
Sat 11/18 11:50pm 8ft 8s 6s 27 34 mph 1015.7mb 54f 52f
10:50pm 7.5ft 7s 6s 25 31 mph 1016.4mb 54f 52f
9:50pm 7ft 8s 6s 25 29 mph 1016.7mb 54f 52f
8:50pm 7.5ft 8s 6s 25 29 mph 1017.3mb 54f 52f
7:50pm 6.5ft 8s 6s 22 25 mph 1018.1mb 54f 52f
6:50pm 6ft 8s 6s 22 27 mph 1018.2mb 54f 52f
5:50pm 6ft 8s 5s 22 25 mph 1018.6mb 54f 52f
4:50pm 6ft 7s 5s 20 25 mph 1019mb 54f 52f
3:50pm 6ft 8s 5s 20 25 mph 1019.2mb 54f 51f
2:50pm 6ft 7s 5s 20 25 mph 1019.5mb 54f 51f
1:50pm 6ft 7s 5s 22 25 mph 1019.9mb 54f 51f
12:50pm 6ft 5s 5s 22 27 mph 1020.4mb 53f 51f
11:50am 6.5ft 5s 5s 22 27 mph 1021.2mb 53f 50f
10:50am 6ft 5s 5s 22 27 mph 1022mb 53f 49f
9:50am 5.5ft 5s 5s 22 27 mph 1022.1mb 53f 50f
8:50am 5ft 7s 5s 20 25 mph 1022.4mb 53f 52f
7:50am 4.5ft 8s 5s 18 22 mph 1022.6mb 53f 52f
6:50am 4.5ft 8s 5s 13 18 mph 1022.8mb 53f 52f
5:50am 4.5ft 7s 5s 16 20 mph 1023.2mb 53f 50f
4:50am 4.5ft 8s 5s 11 13 mph 1023.3mb 53f 51f
3:50am 4.5ft 8s 5s 16 20 mph 1023.4mb 53f 52f
2:50am 4.5ft 8s 5s 16 18 mph 1023.8mb 53f 52f
1:50am 5ft 8s 5s 13 16 mph 1023.9mb 53f 51f
12:50am 4.5ft 7s 5s 13 16 mph 1024.1mb 53f 51f
Fri 11/17 11:50pm 5ft 8s 6s 13 18 mph 1024.2mb 53f 51f
10:50pm 5.5ft 8s 6s 13 16 mph 1024mb 53f 51f
9:50pm 5ft 8s 6s 16 18 mph 1023.7mb 53f 51f
8:50pm 5ft 8s 6s 16 18 mph 1023.5mb 53f 51f
7:50pm 5ft 9s 7s 4 9 mph 1023.5mb 53f 49f
6:50pm 6ft 8s 7s 7 11 mph 1023.4mb 53f 48f
5:50pm 6ft 8s 7s 2 4 mph 1023mb 53f 48f